sensor_id;sensor_type;location;lat;lon;timestamp;pressure;altitude;pressure_sealevel;temperature;humidity
24834;BME280;12914;43.702;22.862;2023-08-30T00:00:15;97940.16;;;30.52;44.64
24834;BME280;12914;43.702;22.862;2023-08-30T00:02:44;97941.97;;;30.48;44.78
24834;BME280;12914;43.702;22.862;2023-08-30T00:05:10;97959.09;;;30.50;44.50
24834;BME280;12914;43.702;22.862;2023-08-30T00:07:36;97956.81;;;30.52;44.61
24834;BME280;12914;43.702;22.862;2023-08-30T00:10:02;97968.56;;;30.49;44.78
24834;BME280;12914;43.702;22.862;2023-08-30T00:12:29;97957.31;;;30.46;44.84
24834;BME280;12914;43.702;22.862;2023-08-30T00:14:55;97964.47;;;30.47;44.87
24834;BME280;12914;43.702;22.862;2023-08-30T00:17:21;97975.09;;;30.53;44.65
24834;BME280;12914;43.702;22.862;2023-08-30T00:19:47;97970.34;;;30.54;44.39
24834;BME280;12914;43.702;22.862;2023-08-30T00:22:14;97964.16;;;30.48;44.78
24834;BME280;12914;43.702;22.862;2023-08-30T00:24:39;97964.00;;;30.53;44.73
24834;BME280;12914;43.702;22.862;2023-08-30T00:27:05;97971.81;;;30.51;44.47
24834;BME280;12914;43.702;22.862;2023-08-30T00:29:31;97988.47;;;30.51;44.54
24834;BME280;12914;43.702;22.862;2023-08-30T00:31:57;97995.66;;;30.52;44.39
24834;BME280;12914;43.702;22.862;2023-08-30T00:34:22;97987.00;;;30.45;44.50
24834;BME280;12914;43.702;22.862;2023-08-30T00:36:48;97995.66;;;30.52;44.56
24834;BME280;12914;43.702;22.862;2023-08-30T00:39:14;98007.22;;;30.54;44.79
24834;BME280;12914;43.702;22.862;2023-08-30T00:41:40;97998.59;;;30.56;44.26
24834;BME280;12914;43.702;22.862;2023-08-30T00:44:05;97984.13;;;30.59;44.22
24834;BME280;12914;43.702;22.862;2023-08-30T00:46:32;97990.50;;;30.59;44.59
24834;BME280;12914;43.702;22.862;2023-08-30T00:48:59;97998.59;;;30.56;44.80
24834;BME280;12914;43.702;22.862;2023-08-30T00:51:26;98014.41;;;30.55;44.49
24834;BME280;12914;43.702;22.862;2023-08-30T00:53:54;98009.50;;;30.52;44.84
24834;BME280;12914;43.702;22.862;2023-08-30T00:56:19;98012.63;;;30.51;44.58
24834;BME280;12914;43.702;22.862;2023-08-30T00:58:45;98015.06;;;30.52;44.74
24834;BME280;12914;43.702;22.862;2023-08-30T01:01:12;98025.03;;;30.53;44.71
24834;BME280;12914;43.702;22.862;2023-08-30T01:03:39;98011.63;;;30.55;44.52
24834;BME280;12914;43.702;22.862;2023-08-30T01:06:04;98026.03;;;30.57;44.62
24834;BME280;12914;43.702;22.862;2023-08-30T01:08:30;98027.19;;;30.56;44.50
24834;BME280;12914;43.702;22.862;2023-08-30T01:11:16;98037.25;;;30.52;44.56
24834;BME280;12914;43.702;22.862;2023-08-30T01:13:56;98026.47;;;30.51;44.88
24834;BME280;12914;43.702;22.862;2023-08-30T01:16:24;98006.75;;;30.52;44.67
24834;BME280;12914;43.702;22.862;2023-08-30T01:18:56;97988.78;;;30.50;44.83
24834;BME280;12914;43.702;22.862;2023-08-30T01:21:38;97975.59;;;30.55;44.60
24834;BME280;12914;43.702;22.862;2023-08-30T01:24:12;97967.91;;;30.52;44.68
24834;BME280;12914;43.702;22.862;2023-08-30T01:27:09;97950.44;;;30.52;44.49
24834;BME280;12914;43.702;22.862;2023-08-30T01:29:39;97940.66;;;30.54;44.29
24834;BME280;12914;43.702;22.862;2023-08-30T01:32:08;97952.91;;;30.53;44.56
24834;BME280;12914;43.702;22.862;2023-08-30T01:34:35;97962.03;;;30.45;44.63
24834;BME280;12914;43.702;22.862;2023-08-30T01:37:02;97980.97;;;30.52;44.50
24834;BME280;12914;43.702;22.862;2023-08-30T01:39:30;97969.53;;;30.53;44.48
24834;BME280;12914;43.702;22.862;2023-08-30T01:41:57;97974.13;;;30.49;44.71
24834;BME280;12914;43.702;22.862;2023-08-30T01:44:30;97966.13;;;30.48;44.79
24834;BME280;12914;43.702;22.862;2023-08-30T01:46:56;97969.88;;;30.43;44.69
24834;BME280;12914;43.702;22.862;2023-08-30T01:49:24;97981.44;;;30.54;44.61
24834;BME280;12914;43.702;22.862;2023-08-30T01:51:51;97992.88;;;30.52;44.50
24834;BME280;12914;43.702;22.862;2023-08-30T01:54:20;98002.00;;;30.53;44.53
24834;BME280;12914;43.702;22.862;2023-08-30T01:56:46;97992.38;;;30.50;44.43
24834;BME280;12914;43.702;22.862;2023-08-30T01:59:12;98018.84;;;30.56;44.50
24834;BME280;12914;43.702;22.862;2023-08-30T02:01:38;98030.56;;;30.53;44.44
24834;BME280;12914;43.702;22.862;2023-08-30T02:04:04;98031.38;;;30.54;44.37
24834;BME280;12914;43.702;22.862;2023-08-30T02:06:40;98039.22;;;30.52;44.68
24834;BME280;12914;43.702;22.862;2023-08-30T02:11:52;98047.03;;;30.50;44.82
24834;BME280;12914;43.702;22.862;2023-08-30T02:14:20;98031.88;;;30.47;44.75
24834;BME280;12914;43.702;22.862;2023-08-30T02:16:46;98014.41;;;30.47;44.52
24834;BME280;12914;43.702;22.862;2023-08-30T02:19:13;98021.09;;;30.54;44.50
24834;BME280;12914;43.702;22.862;2023-08-30T02:21:42;97976.41;;;30.47;44.37
24834;BME280;12914;43.702;22.862;2023-08-30T02:24:08;97928.09;;;30.48;44.51
24834;BME280;12914;43.702;22.862;2023-08-30T02:26:34;97901.34;;;30.52;44.60
24834;BME280;12914;43.702;22.862;2023-08-30T02:28:59;97886.00;;;30.46;44.65
24834;BME280;12914;43.702;22.862;2023-08-30T02:31:25;97889.28;;;30.48;44.48
24834;BME280;12914;43.702;22.862;2023-08-30T02:33:50;97888.47;;;30.48;44.59
24834;BME280;12914;43.702;22.862;2023-08-30T02:36:16;97880.47;;;30.46;44.37
24834;BME280;12914;43.702;22.862;2023-08-30T02:38:41;97878.34;;;30.52;44.43
24834;BME280;12914;43.702;22.862;2023-08-30T02:41:07;97883.41;;;30.41;44.73
24834;BME280;12914;43.702;22.862;2023-08-30T02:43:32;97857.31;;;30.42;44.67
24834;BME280;12914;43.702;22.862;2023-08-30T02:45:58;97859.25;;;30.42;44.46
24834;BME280;12914;43.702;22.862;2023-08-30T02:48:23;97903.31;;;30.43;44.92
24834;BME280;12914;43.702;22.862;2023-08-30T02:50:49;97938.22;;;30.36;45.00
24834;BME280;12914;43.702;22.862;2023-08-30T02:53:15;97943.59;;;30.41;44.83
24834;BME280;12914;43.702;22.862;2023-08-30T02:55:40;97949.63;;;30.43;44.45
24834;BME280;12914;43.702;22.862;2023-08-30T02:58:06;97959.44;;;30.40;44.75
24834;BME280;12914;43.702;22.862;2023-08-30T03:00:31;97964.66;;;30.42;44.90
24834;BME280;12914;43.702;22.862;2023-08-30T03:02:57;97958.44;;;30.36;44.91
24834;BME280;12914;43.702;22.862;2023-08-30T03:05:22;97945.56;;;30.32;45.07
24834;BME280;12914;43.702;22.862;2023-08-30T03:07:48;97942.47;;;30.33;44.71
24834;BME280;12914;43.702;22.862;2023-08-30T03:10:13;97944.75;;;30.31;45.02
24834;BME280;12914;43.702;22.862;2023-08-30T03:12:39;97944.25;;;30.38;44.55
24834;BME280;12914;43.702;22.862;2023-08-30T03:15:05;97955.03;;;30.39;45.01
24834;BME280;12914;43.702;22.862;2023-08-30T03:17:31;97963.50;;;30.43;44.66
24834;BME280;12914;43.702;22.862;2023-08-30T03:19:56;97963.19;;;30.44;44.92
24834;BME280;12914;43.702;22.862;2023-08-30T03:22:22;97954.03;;;30.44;44.72
24834;BME280;12914;43.702;22.862;2023-08-30T03:24:47;97949.63;;;30.34;44.99
24834;BME280;12914;43.702;22.862;2023-08-30T03:27:14;97952.25;;;30.39;44.85
24834;BME280;12914;43.702;22.862;2023-08-30T03:29:40;97941.97;;;30.40;44.50
24834;BME280;12914;43.702;22.862;2023-08-30T03:32:05;97945.06;;;30.38;44.74
24834;BME280;12914;43.702;22.862;2023-08-30T03:34:31;97941.81;;;30.36;44.94
24834;BME280;12914;43.702;22.862;2023-08-30T03:36:56;97939.34;;;30.35;45.02
24834;BME280;12914;43.702;22.862;2023-08-30T03:39:22;97944.75;;;30.40;44.74
24834;BME280;12914;43.702;22.862;2023-08-30T03:41:49;97937.06;;;30.37;44.70
24834;BME280;12914;43.702;22.862;2023-08-30T03:44:15;97930.06;;;30.39;44.62
24834;BME280;12914;43.702;22.862;2023-08-30T03:46:40;97943.28;;;30.42;44.60
24834;BME280;12914;43.702;22.862;2023-08-30T03:49:06;97931.69;;;30.40;44.69
24834;BME280;12914;43.702;22.862;2023-08-30T03:51:31;97936.09;;;30.41;44.79
24834;BME280;12914;43.702;22.862;2023-08-30T03:53:57;97926.97;;;30.41;44.55
24834;BME280;12914;43.702;22.862;2023-08-30T03:56:22;97941.16;;;30.39;44.64
24834;BME280;12914;43.702;22.862;2023-08-30T03:58:48;97938.72;;;30.38;44.99
24834;BME280;12914;43.702;22.862;2023-08-30T04:01:14;97952.09;;;30.36;44.81
24834;BME280;12914;43.702;22.862;2023-08-30T04:03:39;97945.06;;;30.38;44.88
24834;BME280;12914;43.702;22.862;2023-08-30T04:06:05;97948.16;;;30.37;44.65
24834;BME280;12914;43.702;22.862;2023-08-30T04:08:31;97942.28;;;30.29;44.89
24834;BME280;12914;43.702;22.862;2023-08-30T04:10:57;97944.91;;;30.35;44.82
24834;BME280;12914;43.702;22.862;2023-08-30T04:13:22;97952.09;;;30.36;44.81
24834;BME280;12914;43.702;22.862;2023-08-30T04:15:48;97953.53;;;30.33;44.78
24834;BME280;12914;43.702;22.862;2023-08-30T04:18:13;97956.16;;;30.38;45.05
24834;BME280;12914;43.702;22.862;2023-08-30T04:20:44;97956.16;;;30.38;45.05
24834;BME280;12914;43.702;22.862;2023-08-30T04:23:10;97954.03;;;30.35;44.74
24834;BME280;12914;43.702;22.862;2023-08-30T04:25:36;97945.38;;;30.28;44.92
24834;BME280;12914;43.702;22.862;2023-08-30T04:28:02;97961.06;;;30.33;44.97
24834;BME280;12914;43.702;22.862;2023-08-30T04:30:28;97964.31;;;30.26;45.18
24834;BME280;12914;43.702;22.862;2023-08-30T04:32:53;97969.19;;;30.29;45.32
24834;BME280;12914;43.702;22.862;2023-08-30T04:35:19;97960.56;;;30.22;45.02
24834;BME280;12914;43.702;22.862;2023-08-30T04:37:44;97973.75;;;30.25;44.79
24834;BME280;12914;43.702;22.862;2023-08-30T04:40:10;97978.00;;;30.31;45.17
24834;BME280;12914;43.702;22.862;2023-08-30T04:42:37;97973.28;;;30.32;45.14
24834;BME280;12914;43.702;22.862;2023-08-30T04:45:03;97964.47;;;30.29;44.92
24834;BME280;12914;43.702;22.862;2023-08-30T04:47:30;97960.88;;;30.29;44.85
24834;BME280;12914;43.702;22.862;2023-08-30T04:49:56;97963.66;;;30.29;44.82
24834;BME280;12914;43.702;22.862;2023-08-30T04:52:21;97954.19;;;30.30;44.66
24834;BME280;12914;43.702;22.862;2023-08-30T04:54:47;97960.38;;;30.27;44.85
24834;BME280;12914;43.702;22.862;2023-08-30T04:57:17;97961.22;;;30.27;44.78
24834;BME280;12914;43.702;22.862;2023-08-30T04:59:43;97981.09;;;29.81;45.42
24834;BME280;12914;43.702;22.862;2023-08-30T05:02:10;97983.69;;;29.78;45.81
24834;BME280;12914;43.702;22.862;2023-08-30T05:04:36;97985.66;;;29.77;45.93
24834;BME280;12914;43.702;22.862;2023-08-30T05:07:02;97967.56;;;29.80;46.09
24834;BME280;12914;43.702;22.862;2023-08-30T05:09:28;97974.41;;;29.82;45.82
24834;BME280;12914;43.702;22.862;2023-08-30T05:11:54;97972.47;;;29.83;45.62
24834;BME280;12914;43.702;22.862;2023-08-30T05:14:20;97975.00;;;29.62;46.32
24834;BME280;12914;43.702;22.862;2023-08-30T05:16:46;97982.97;;;29.63;46.37
24834;BME280;12914;43.702;22.862;2023-08-30T05:19:12;97989.19;;;29.69;46.57
24834;BME280;12914;43.702;22.862;2023-08-30T05:21:37;97979.91;;;29.65;46.12
24834;BME280;12914;43.702;22.862;2023-08-30T05:24:03;97986.34;;;29.52;46.60
24834;BME280;12914;43.702;22.862;2023-08-30T05:26:31;97981.50;;;29.57;46.90
24834;BME280;12914;43.702;22.862;2023-08-30T05:28:56;97973.50;;;29.56;46.95
24834;BME280;12914;43.702;22.862;2023-08-30T05:31:22;97974.03;;;29.66;46.49
24834;BME280;12914;43.702;22.862;2023-08-30T05:33:47;97974.38;;;29.74;46.26
24834;BME280;12914;43.702;22.862;2023-08-30T05:36:13;97972.75;;;29.73;46.32
24834;BME280;12914;43.702;22.862;2023-08-30T05:38:38;97976.03;;;29.75;46.26
24834;BME280;12914;43.702;22.862;2023-08-30T05:41:04;97962.16;;;29.75;46.43
24834;BME280;12914;43.702;22.862;2023-08-30T05:43:29;97965.09;;;29.70;46.72
24834;BME280;12914;43.702;22.862;2023-08-30T05:45:55;97971.47;;;29.79;46.47
24834;BME280;12914;43.702;22.862;2023-08-30T05:48:26;97975.88;;;29.80;46.44
24834;BME280;12914;43.702;22.862;2023-08-30T05:50:51;97964.75;;;29.71;46.63
24834;BME280;12914;43.702;22.862;2023-08-30T05:53:17;97971.94;;;29.72;47.05
24834;BME280;12914;43.702;22.862;2023-08-30T05:55:42;97975.31;;;29.60;46.97
24834;BME280;12914;43.702;22.862;2023-08-30T05:58:08;97964.69;;;29.54;47.82
24834;BME280;12914;43.702;22.862;2023-08-30T06:00:33;97974.00;;;29.58;47.00
24834;BME280;12914;43.702;22.862;2023-08-30T06:02:59;97966.91;;;29.74;47.19
24834;BME280;12914;43.702;22.862;2023-08-30T06:05:26;97967.03;;;29.69;47.23
24834;BME280;12914;43.702;22.862;2023-08-30T06:07:51;97968.66;;;29.70;47.00
24834;BME280;12914;43.702;22.862;2023-08-30T06:10:17;97984.50;;;29.78;46.81
24834;BME280;12914;43.702;22.862;2023-08-30T06:12:43;97982.38;;;29.75;46.93
24834;BME280;12914;43.702;22.862;2023-08-30T06:15:08;97984.63;;;29.64;47.25
24834;BME280;12914;43.702;22.862;2023-08-30T06:17:34;97992.81;;;29.78;47.23
24834;BME280;12914;43.702;22.862;2023-08-30T06:20:00;97993.47;;;29.75;47.22
24834;BME280;12914;43.702;22.862;2023-08-30T06:22:25;97993.47;;;29.75;47.09
24834;BME280;12914;43.702;22.862;2023-08-30T06:24:51;97999.50;;;29.77;46.92
24834;BME280;12914;43.702;22.862;2023-08-30T06:27:16;97995.44;;;29.83;47.07
24834;BME280;12914;43.702;22.862;2023-08-30T06:29:42;97995.59;;;29.78;47.31
24834;BME280;12914;43.702;22.862;2023-08-30T06:32:07;97997.41;;;29.83;46.68
24834;BME280;12914;43.702;22.862;2023-08-30T06:34:33;97992.03;;;29.86;46.72
24834;BME280;12914;43.702;22.862;2023-08-30T06:36:58;98006.38;;;29.88;47.15
24834;BME280;12914;43.702;22.862;2023-08-30T06:39:24;98004.44;;;29.89;46.85
24834;BME280;12914;43.702;22.862;2023-08-30T06:41:49;97992.53;;;29.88;46.77
24834;BME280;12914;43.702;22.862;2023-08-30T06:44:15;97987.47;;;29.90;46.86
24834;BME280;12914;43.702;22.862;2023-08-30T06:46:42;97992.53;;;29.88;46.94
24834;BME280;12914;43.702;22.862;2023-08-30T06:49:08;97988.28;;;29.82;46.92
24834;BME280;12914;43.702;22.862;2023-08-30T06:51:35;97997.25;;;29.88;46.53
24834;BME280;12914;43.702;22.862;2023-08-30T06:54:00;97996.13;;;29.89;47.20
24834;BME280;12914;43.702;22.862;2023-08-30T06:56:29;98003.81;;;29.92;46.70
24834;BME280;12914;43.702;22.862;2023-08-30T06:58:54;98005.38;;;29.84;47.01
24834;BME280;12914;43.702;22.862;2023-08-30T07:01:19;97997.91;;;29.85;47.16
24834;BME280;12914;43.702;22.862;2023-08-30T07:03:45;97991.50;;;29.76;47.54
24834;BME280;12914;43.702;22.862;2023-08-30T07:06:10;97982.34;;;29.66;47.36
24834;BME280;12914;43.702;22.862;2023-08-30T07:08:36;97992.47;;;29.71;47.92
24834;BME280;12914;43.702;22.862;2023-08-30T07:11:02;97962.44;;;29.56;48.05
24834;BME280;12914;43.702;22.862;2023-08-30T07:13:27;97993.47;;;29.75;47.95
24834;BME280;12914;43.702;22.862;2023-08-30T07:15:53;97992.66;;;29.75;47.59
24834;BME280;12914;43.702;22.862;2023-08-30T07:18:19;97994.63;;;29.83;47.62
24834;BME280;12914;43.702;22.862;2023-08-30T07:20:44;98003.13;;;29.86;46.96
24834;BME280;12914;43.702;22.862;2023-08-30T07:23:10;98001.31;;;29.82;47.22
24834;BME280;12914;43.702;22.862;2023-08-30T07:25:37;98007.50;;;29.79;47.15
24834;BME280;12914;43.702;22.862;2023-08-30T07:28:03;98007.44;;;29.70;47.66
24834;BME280;12914;43.702;22.862;2023-08-30T07:30:29;98005.84;;;29.78;47.49
24834;BME280;12914;43.702;22.862;2023-08-30T07:32:55;97998.53;;;29.82;46.93
24834;BME280;12914;43.702;22.862;2023-08-30T07:35:20;98007.31;;;29.75;47.63
24834;BME280;12914;43.702;22.862;2023-08-30T07:37:46;98005.81;;;29.69;47.70
24834;BME280;12914;43.702;22.862;2023-08-30T07:40:11;98014.03;;;29.83;47.44
24834;BME280;12914;43.702;22.862;2023-08-30T07:42:37;98007.66;;;29.82;47.00
24834;BME280;12914;43.702;22.862;2023-08-30T07:45:03;97998.72;;;29.85;47.04
24834;BME280;12914;43.702;22.862;2023-08-30T07:47:32;98005.25;;;29.89;46.67
24834;BME280;12914;43.702;22.862;2023-08-30T07:49:57;98008.34;;;29.88;46.92
24834;BME280;12914;43.702;22.862;2023-08-30T07:52:23;98006.69;;;29.87;46.93
24834;BME280;12914;43.702;22.862;2023-08-30T07:54:48;98013.25;;;29.91;47.30
24834;BME280;12914;43.702;22.862;2023-08-30T07:57:14;98026.97;;;29.96;46.67
24834;BME280;12914;43.702;22.862;2023-08-30T07:59:39;98019.63;;;29.91;47.21
24834;BME280;12914;43.702;22.862;2023-08-30T08:02:06;98016.72;;;29.96;46.83
24834;BME280;12914;43.702;22.862;2023-08-30T08:04:36;98024.06;;;30.01;46.83
24834;BME280;12914;43.702;22.862;2023-08-30T08:07:02;98023.06;;;29.97;46.71
24834;BME280;12914;43.702;22.862;2023-08-30T08:09:28;98031.69;;;29.95;46.91
24834;BME280;12914;43.702;22.862;2023-08-30T08:11:55;98018.84;;;30.00;46.68
24834;BME280;12914;43.702;22.862;2023-08-30T08:14:24;98022.94;;;30.02;46.57
24834;BME280;12914;43.702;22.862;2023-08-30T08:16:50;98019.22;;;30.07;46.47
24834;BME280;12914;43.702;22.862;2023-08-30T08:19:16;98017.69;;;30.01;46.54
24834;BME280;12914;43.702;22.862;2023-08-30T08:21:41;98010.34;;;29.96;46.56
24834;BME280;12914;43.702;22.862;2023-08-30T08:24:07;98017.69;;;30.01;46.56
24834;BME280;12914;43.702;22.862;2023-08-30T08:26:32;98008.94;;;30.07;46.51
24834;BME280;12914;43.702;22.862;2023-08-30T08:28:59;98017.75;;;30.09;46.64
24834;BME280;12914;43.702;22.862;2023-08-30T08:31:25;98023.31;;;30.09;46.24
24834;BME280;12914;43.702;22.862;2023-08-30T08:36:30;98027.72;;;30.10;46.14
24834;BME280;12914;43.702;22.862;2023-08-30T08:38:55;98035.38;;;30.13;46.04
24834;BME280;12914;43.702;22.862;2023-08-30T08:41:22;98038.31;;;30.08;46.02
24834;BME280;12914;43.702;22.862;2023-08-30T08:43:51;98029.81;;;30.05;46.16
24834;BME280;12914;43.702;22.862;2023-08-30T08:46:17;98030.44;;;30.02;46.12
24834;BME280;12914;43.702;22.862;2023-08-30T08:48:44;98017.66;;;29.92;45.74
24834;BME280;12914;43.702;22.862;2023-08-30T08:51:12;98018.34;;;29.97;45.85
24834;BME280;12914;43.702;22.862;2023-08-30T08:53:39;98016.28;;;30.03;45.80
24834;BME280;12914;43.702;22.862;2023-08-30T08:56:06;98014.00;;;30.05;45.56
24834;BME280;12914;43.702;22.862;2023-08-30T08:58:36;98016.94;;;30.09;45.58
24834;BME280;12914;43.702;22.862;2023-08-30T09:01:03;98019.88;;;30.12;45.52
24834;BME280;12914;43.702;22.862;2023-08-30T09:03:30;98019.56;;;30.14;45.17
24834;BME280;12914;43.702;22.862;2023-08-30T09:05:55;98026.25;;;30.13;45.90
24834;BME280;12914;43.702;22.862;2023-08-30T09:08:21;98021.69;;;30.17;45.60
24834;BME280;12914;43.702;22.862;2023-08-30T09:10:47;98013.88;;;30.19;45.74
24834;BME280;12914;43.702;22.862;2023-08-30T09:13:16;98007.84;;;30.17;45.74
24834;BME280;12914;43.702;22.862;2023-08-30T09:15:41;97998.88;;;30.20;45.52
24834;BME280;12914;43.702;22.862;2023-08-30T09:18:17;98007.19;;;30.20;45.74
24834;BME280;12914;43.702;22.862;2023-08-30T09:20:43;98012.22;;;30.18;46.12
24834;BME280;12914;43.702;22.862;2023-08-30T09:23:21;98009.63;;;30.13;45.86
24834;BME280;12914;43.702;22.862;2023-08-30T09:25:47;97992.31;;;30.07;45.89
24834;BME280;12914;43.702;22.862;2023-08-30T09:28:12;98000.47;;;30.12;45.85
24834;BME280;12914;43.702;22.862;2023-08-30T09:30:39;98011.59;;;30.21;45.95
24834;BME280;12914;43.702;22.862;2023-08-30T09:33:05;98006.69;;;30.18;45.62
24834;BME280;12914;43.702;22.862;2023-08-30T09:35:31;98009.97;;;30.20;44.98
24834;BME280;12914;43.702;22.862;2023-08-30T09:37:57;98010.78;;;30.20;45.11
24834;BME280;12914;43.702;22.862;2023-08-30T09:40:22;98006.53;;;30.23;45.07
24834;BME280;12914;43.702;22.862;2023-08-30T09:42:48;98006.03;;;30.21;45.15
24834;BME280;12914;43.702;22.862;2023-08-30T09:45:22;98004.59;;;30.23;45.51
24834;BME280;12914;43.702;22.862;2023-08-30T09:47:48;97996.75;;;30.25;45.00
24834;BME280;12914;43.702;22.862;2023-08-30T09:50:19;97989.59;;;30.24;44.85
24834;BME280;12914;43.702;22.862;2023-08-30T09:52:46;97989.75;;;30.28;45.08
24834;BME280;12914;43.702;22.862;2023-08-30T09:55:14;97986.16;;;30.27;45.02
24834;BME280;12914;43.702;22.862;2023-08-30T09:57:42;97989.75;;;30.28;44.82
24834;BME280;12914;43.702;22.862;2023-08-30T10:00:11;97994.47;;;30.27;44.83
24834;BME280;12914;43.702;22.862;2023-08-30T10:02:43;97994.16;;;30.29;45.13
24834;BME280;12914;43.702;22.862;2023-08-30T10:05:10;97988.28;;;30.31;44.79
24834;BME280;12914;43.702;22.862;2023-08-30T10:07:37;97998.88;;;30.28;45.04
24834;BME280;12914;43.702;22.862;2023-08-30T10:10:04;97992.19;;;30.29;44.62
24834;BME280;12914;43.702;22.862;2023-08-30T10:12:32;97996.13;;;30.28;44.42
24834;BME280;12914;43.702;22.862;2023-08-30T10:15:00;97984.69;;;30.30;44.08
24834;BME280;12914;43.702;22.862;2023-08-30T10:17:32;97985.19;;;30.32;44.25
24834;BME280;12914;43.702;22.862;2023-08-30T10:20:04;97979.66;;;30.32;44.45
24834;BME280;12914;43.702;22.862;2023-08-30T10:22:32;97975.72;;;30.33;44.28
24834;BME280;12914;43.702;22.862;2023-08-30T10:25:04;97955.97;;;30.26;44.68
24834;BME280;12914;43.702;22.862;2023-08-30T10:27:31;97982.59;;;30.36;44.38
24834;BME280;12914;43.702;22.862;2023-08-30T10:29:59;97969.38;;;30.33;44.23
24834;BME280;12914;43.702;22.862;2023-08-30T10:32:26;97974.25;;;30.36;44.33
24834;BME280;12914;43.702;22.862;2023-08-30T10:34:52;97968.41;;;30.37;44.49
24834;BME280;12914;43.702;22.862;2023-08-30T10:37:26;97971.97;;;30.29;44.45
24834;BME280;12914;43.702;22.862;2023-08-30T10:39:53;97968.22;;;30.34;44.72
24834;BME280;12914;43.702;22.862;2023-08-30T10:42:24;97966.09;;;30.31;44.44
24834;BME280;12914;43.702;22.862;2023-08-30T10:44:57;97957.47;;;30.32;44.36
24834;BME280;12914;43.702;22.862;2023-08-30T10:47:30;97963.19;;;30.36;44.13
24834;BME280;12914;43.702;22.862;2023-08-30T10:49:58;97958.75;;;30.35;44.56
24834;BME280;12914;43.702;22.862;2023-08-30T10:52:25;97958.28;;;30.33;44.43
24834;BME280;12914;43.702;22.862;2023-08-30T10:54:51;97923.03;;;30.16;44.66
24834;BME280;12914;43.702;22.862;2023-08-30T10:57:25;97954.38;;;30.34;44.50
24834;BME280;12914;43.702;22.862;2023-08-30T11:00:19;97954.03;;;30.35;44.70
24834;BME280;12914;43.702;22.862;2023-08-30T11:03:10;97952.72;;;30.24;44.81
24834;BME280;12914;43.702;22.862;2023-08-30T11:05:46;97949.13;;;30.23;44.40
24834;BME280;12914;43.702;22.862;2023-08-30T11:08:15;97949.94;;;30.24;44.74
24834;BME280;12914;43.702;22.862;2023-08-30T11:10:41;97942.63;;;30.28;44.36
24834;BME280;12914;43.702;22.862;2023-08-30T11:13:08;97944.41;;;30.33;44.18
24834;BME280;12914;43.702;22.862;2023-08-30T11:15:33;97949.31;;;30.27;44.20
24834;BME280;12914;43.702;22.862;2023-08-30T11:18:05;97945.38;;;30.28;44.34
24834;BME280;12914;43.702;22.862;2023-08-30T11:20:31;97935.28;;;30.32;44.19
24834;BME280;12914;43.702;22.862;2023-08-30T11:22:56;97939.03;;;30.27;44.70
24834;BME280;12914;43.702;22.862;2023-08-30T11:25:22;97934.28;;;30.28;44.54
24834;BME280;12914;43.702;22.862;2023-08-30T11:27:48;97927.28;;;30.31;44.00
24834;BME280;12914;43.702;22.862;2023-08-30T11:30:13;97937.06;;;30.28;43.96
24834;BME280;12914;43.702;22.862;2023-08-30T11:32:40;97933.16;;;30.29;44.21
24834;BME280;12914;43.702;22.862;2023-08-30T11:35:08;97931.19;;;30.29;44.49
24834;BME280;12914;43.702;22.862;2023-08-30T11:37:33;97933.16;;;30.29;44.06
24834;BME280;12914;43.702;22.862;2023-08-30T11:40:01;97925.00;;;30.33;44.32
24834;BME280;12914;43.702;22.862;2023-08-30T11:42:27;97924.19;;;30.32;44.23
24834;BME280;12914;43.702;22.862;2023-08-30T11:44:53;97920.75;;;30.26;44.15
24834;BME280;12914;43.702;22.862;2023-08-30T11:47:26;97916.03;;;30.27;44.35
24834;BME280;12914;43.702;22.862;2023-08-30T11:49:56;97915.69;;;30.20;44.75
24834;BME280;12914;43.702;22.862;2023-08-30T11:52:25;97921.56;;;30.27;44.43
24834;BME280;12914;43.702;22.862;2023-08-30T11:54:52;97923.53;;;30.26;44.20
24834;BME280;12914;43.702;22.862;2023-08-30T11:57:18;97925.16;;;30.36;44.18
24834;BME280;12914;43.702;22.862;2023-08-30T11:59:43;97920.44;;;30.37;44.12
24834;BME280;12914;43.702;22.862;2023-08-30T12:02:09;97918.00;;;30.35;44.10
24834;BME280;12914;43.702;22.862;2023-08-30T12:04:41;97928.44;;;30.29;44.15
24834;BME280;12914;43.702;22.862;2023-08-30T12:07:08;97939.19;;;30.31;43.95
24834;BME280;12914;43.702;22.862;2023-08-30T12:09:33;97940.34;;;30.30;44.06
24834;BME280;12914;43.702;22.862;2023-08-30T12:12:25;97937.72;;;30.34;44.11
24834;BME280;12914;43.702;22.862;2023-08-30T12:14:57;97943.75;;;30.36;44.24
24834;BME280;12914;43.702;22.862;2023-08-30T12:17:23;97941.00;;;30.36;44.07
24834;BME280;12914;43.702;22.862;2023-08-30T12:19:58;97942.63;;;30.37;43.95
24834;BME280;12914;43.702;22.862;2023-08-30T12:22:37;97945.56;;;30.32;44.05
24834;BME280;12914;43.702;22.862;2023-08-30T12:25:16;97943.09;;;30.30;44.20
24834;BME280;12914;43.702;22.862;2023-08-30T12:27:43;97942.47;;;30.33;43.87
24834;BME280;12914;43.702;22.862;2023-08-30T12:30:08;97943.09;;;30.30;44.06
24834;BME280;12914;43.702;22.862;2023-08-30T12:32:34;97943.44;;;30.28;44.03
24834;BME280;12914;43.702;22.862;2023-08-30T12:34:59;97933.16;;;30.29;44.07
24834;BME280;12914;43.702;22.862;2023-08-30T12:37:25;97934.94;;;30.25;44.28
24834;BME280;12914;43.702;22.862;2023-08-30T12:39:51;97934.94;;;30.25;44.04
24834;BME280;12914;43.702;22.862;2023-08-30T12:42:16;97931.53;;;30.28;44.69
24834;BME280;12914;43.702;22.862;2023-08-30T12:44:41;97927.13;;;30.27;44.75
24834;BME280;12914;43.702;22.862;2023-08-30T12:47:07;97923.53;;;30.26;44.60
24834;BME280;12914;43.702;22.862;2023-08-30T12:49:32;97925.50;;;30.26;44.58
24834;BME280;12914;43.702;22.862;2023-08-30T12:51:58;97920.75;;;30.18;44.97
24834;BME280;12914;43.702;22.862;2023-08-30T12:54:23;97916.34;;;30.34;44.32